Time;durP1;ratioP1;P1;durP2;ratioP2;P2;SDS_P1;SDS_P2;PMS_P1;PMS_P2;Temp;Humidity;BMP_temperature;BMP_pressure;BME280_temperature;BME280_humidity;BME280_pressure;Samples;Min_cycle;Max_cycle;Signal;HPM_P1;HPM_P2
2023/07/08 00:00:42;;;;;;;5.40;3.80;;;17.60;99.90;;;;;;4977585;28;20039;-68
2023/07/08 00:03:07;;;;;;;9.27;3.65;;;17.60;99.90;;;;;;4978312;28;20074;-68
2023/07/08 00:05:33;;;;;;;6.80;3.40;;;17.50;99.90;;;;;;4978102;28;20023;-68
2023/07/08 00:07:59;;;;;;;4.95;3.50;;;17.60;99.90;;;;;;4978056;28;20112;-69
2023/07/08 00:10:27;;;;;;;6.55;3.95;;;17.60;99.90;;;;;;4976713;28;20487;-68
2023/07/08 00:12:54;;;;;;;6.75;4.25;;;17.50;99.90;;;;;;4976627;28;20053;-68
2023/07/08 00:15:32;;;;;;;9.93;4.35;;;17.50;99.90;;;;;;4977623;28;20023;-69
2023/07/08 00:17:58;;;;;;;6.82;4.00;;;17.60;99.90;;;;;;4970910;28;20468;-69
2023/07/08 00:20:36;;;;;;;8.40;3.88;;;17.60;99.90;;;;;;4977703;28;20042;-69
2023/07/08 00:23:02;;;;;;;7.47;4.57;;;17.60;99.90;;;;;;4978090;28;20440;-69
2023/07/08 00:25:29;;;;;;;9.50;4.97;;;17.70;99.90;;;;;;4977930;28;20031;-69
2023/07/08 00:27:55;;;;;;;7.70;4.57;;;17.70;99.90;;;;;;4978061;28;20074;-69
2023/07/08 00:30:22;;;;;;;9.32;5.68;;;17.80;99.90;;;;;;4977668;28;20022;-69
2023/07/08 00:32:53;;;;;;;9.10;4.60;;;17.80;99.90;;;;;;5009069;28;20031;-68
2023/07/08 00:35:45;;;;;;;8.38;5.10;;;17.80;99.90;;;;;;4977861;28;20019;-69
2023/07/08 00:38:26;;;;;;;10.20;5.78;;;17.80;99.90;;;;;;4977457;28;20124;-69
2023/07/08 00:41:13;;;;;;;7.45;5.78;;;17.90;99.90;;;;;;4977826;28;20019;-69
2023/07/08 00:43:46;;;;;;;9.77;5.50;;;17.90;99.90;;;;;;4977673;28;20527;-69
2023/07/08 00:46:27;;;;;;;10.98;5.82;;;17.90;99.90;;;;;;4977324;28;20056;-69
2023/07/08 00:48:55;;;;;;;;;;;17.90;99.90;;;;;;4978226;28;20396;-69
2023/07/08 00:51:22;;;;;;;12.75;5.30;;;17.90;99.90;;;;;;4977662;28;19928;-69
2023/07/08 00:53:48;;;;;;;13.23;7.28;;;17.90;99.90;;;;;;4977752;28;20517;-69
2023/07/08 00:56:43;;;;;;;14.07;6.30;;;17.90;99.90;;;;;;4977701;28;20027;-69
2023/07/08 00:59:14;;;;;;;7.65;5.40;;;18.00;99.90;;;;;;4972970;28;20023;-69
2023/07/08 01:01:43;;;;;;;14.40;6.57;;;18.00;99.90;;;;;;4969964;28;20026;-68
2023/07/08 01:04:12;;;;;;;14.75;6.90;;;18.10;99.90;;;;;;4977493;28;20050;-69
2023/07/08 01:06:41;;;;;;;9.10;6.82;;;18.10;99.90;;;;;;5008950;28;20038;-68
2023/07/08 01:09:09;;;;;;;11.07;6.50;;;18.20;99.90;;;;;;4976085;28;20093;-69
2023/07/08 01:11:39;;;;;;;10.57;6.82;;;18.20;99.90;;;;;;4977597;28;20035;-68
2023/07/08 01:14:07;;;;;;;12.02;6.65;;;18.30;99.90;;;;;;4977444;28;20089;-69
2023/07/08 01:16:33;;;;;;;12.57;6.85;;;18.30;99.90;;;;;;4977332;28;20023;-70
2023/07/08 01:19:00;;;;;;;10.82;6.72;;;18.40;99.90;;;;;;4977389;28;20015;-69
2023/07/08 01:21:30;;;;;;;8.90;6.53;;;18.50;99.90;;;;;;4977356;28;20061;-68
2023/07/08 01:23:57;;;;;;;8.20;5.68;;;18.60;99.90;;;;;;4977497;28;20022;-68
2023/07/08 01:26:25;;;;;;;9.80;5.93;;;18.60;99.90;;;;;;4979262;28;20419;-69
2023/07/08 01:28:55;;;;;;;12.27;7.03;;;18.50;99.90;;;;;;4980958;28;20026;-69
2023/07/08 01:31:22;;;;;;;10.25;6.05;;;18.50;99.90;;;;;;4980621;28;20033;-69
2023/07/08 01:33:48;;;;;;;13.55;6.03;;;18.60;99.90;;;;;;4980651;28;20027;-69
2023/07/08 01:36:13;;;;;;;7.68;5.78;;;18.60;99.90;;;;;;4980782;28;20491;-69
2023/07/08 01:38:40;;;;;;;9.40;5.80;;;18.60;99.90;;;;;;4980708;28;20023;-68
2023/07/08 01:41:12;;;;;;;8.20;5.80;;;18.60;99.90;;;;;;4980623;28;20093;-69
2023/07/08 01:43:37;;;;;;;7.40;5.25;;;18.60;99.90;;;;;;4980638;28;20030;-69
2023/07/08 01:46:04;;;;;;;11.60;5.60;;;18.60;99.90;;;;;;5011606;28;20038;-69
2023/07/08 01:48:35;;;;;;;10.00;6.22;;;18.60;99.90;;;;;;4980644;28;20054;-69
2023/07/08 01:51:06;;;;;;;9.48;5.72;;;18.60;99.90;;;;;;5011682;28;20035;-69
2023/07/08 01:53:37;;;;;;;10.55;5.82;;;18.60;99.90;;;;;;4980818;28;20030;-69
2023/07/08 01:56:05;;;;;;;8.60;6.10;;;18.60;99.90;;;;;;4980035;28;20034;-68
2023/07/08 01:58:30;;;;;;;8.68;5.82;;;18.60;99.90;;;;;;4975285;28;20043;-69
2023/07/08 02:00:56;;;;;;;8.75;5.68;;;18.60;99.90;;;;;;4979706;28;20038;-68
2023/07/08 02:03:22;;;;;;;11.25;5.60;;;18.60;99.90;;;;;;4980548;28;20532;-69
2023/07/08 02:05:48;;;;;;;11.00;6.03;;;18.60;99.90;;;;;;4978046;28;20023;-69
2023/07/08 02:08:13;;;;;;;9.38;5.75;;;18.60;99.90;;;;;;4980035;28;20050;-69
2023/07/08 02:10:41;;;;;;;11.18;5.85;;;18.60;99.90;;;;;;4980038;28;20034;-69
2023/07/08 02:13:07;;;;;;;9.20;5.82;;;18.60;99.90;;;;;;4980183;28;20019;-69
2023/07/08 02:15:33;;;;;;;12.32;6.05;;;18.70;99.90;;;;;;4979880;28;20037;-69
2023/07/08 02:17:58;;;;;;;10.73;6.28;;;18.70;99.90;;;;;;4979887;28;20602;-69
2023/07/08 02:20:24;;;;;;;9.00;5.68;;;18.80;99.90;;;;;;4978845;28;20085;-69
2023/07/08 02:22:50;;;;;;;13.20;6.55;;;18.80;99.90;;;;;;4978517;28;20031;-69
2023/07/08 02:25:16;;;;;;;9.48;6.40;;;18.80;99.90;;;;;;4979981;28;20058;-69
2023/07/08 02:27:42;;;;;;;13.32;6.40;;;18.80;99.90;;;;;;4979446;28;20030;-69
2023/07/08 02:30:08;;;;;;;10.35;6.00;;;18.80;99.90;;;;;;4979681;28;20042;-69
2023/07/08 02:32:35;;;;;;;12.25;5.72;;;18.90;99.90;;;;;;4979690;28;20050;-69
2023/07/08 02:35:03;;;;;;;10.43;6.50;;;19.00;99.90;;;;;;4979856;28;20031;-69
2023/07/08 02:37:29;;;;;;;15.00;6.72;;;19.00;99.90;;;;;;4978522;28;20392;-69
2023/07/08 02:39:55;;;;;;;13.93;6.15;;;19.00;99.90;;;;;;4978350;28;20018;-69
2023/07/08 02:42:21;;;;;;;8.40;5.68;;;19.00;99.90;;;;;;4979539;28;20015;-69
2023/07/08 02:44:47;;;;;;;9.93;6.63;;;19.00;99.90;;;;;;4979174;28;20050;-69
2023/07/08 02:47:13;;;;;;;11.73;5.55;;;19.00;99.90;;;;;;4979712;28;20027;-69
2023/07/08 02:49:38;;;;;;;13.95;6.45;;;19.00;99.90;;;;;;4979440;28;20026;-68
2023/07/08 02:52:04;;;;;;;10.27;6.07;;;19.10;99.90;;;;;;4979507;28;20034;-69
2023/07/08 02:54:30;;;;;;;8.82;6.32;;;19.10;99.90;;;;;;4979177;28;20041;-69
2023/07/08 02:56:55;;;;;;;9.73;5.70;;;19.10;99.90;;;;;;5010589;28;20031;-69
2023/07/08 02:59:21;;;;;;;13.45;6.07;;;19.20;99.90;;;;;;4975414;28;20030;-69
2023/07/08 03:01:47;;;;;;;10.68;6.15;;;19.10;99.90;;;;;;4978959;28;20045;-69
2023/07/08 03:04:13;;;;;;;9.80;6.53;;;19.20;99.90;;;;;;4978770;28;20394;-69
2023/07/08 03:06:45;;;;;;;9.18;5.97;;;19.20;99.90;;;;;;4978540;28;20054;-69
2023/07/08 03:09:12;;;;;;;13.32;6.38;;;19.20;99.90;;;;;;4978384;28;20038;-69
2023/07/08 03:11:38;;;;;;;15.13;6.15;;;19.30;99.90;;;;;;4978923;28;20023;-69
2023/07/08 03:14:05;;;;;;;11.40;6.22;;;19.30;99.90;;;;;;4978650;28;20023;-69
2023/07/08 03:16:31;;;;;;;11.18;5.40;;;19.30;99.90;;;;;;4978735;28;20026;-69
2023/07/08 03:18:57;;;;;;;16.45;6.63;;;19.40;99.90;;;;;;4978877;28;20019;-69
2023/07/08 03:21:22;;;;;;;9.63;6.57;;;19.40;99.90;;;;;;4978957;28;20045;-69
2023/07/08 03:23:49;;;;;;;13.05;5.13;;;19.40;99.90;;;;;;4977430;28;20029;-69
2023/07/08 03:26:19;;;;;;;9.30;4.93;;;19.40;99.90;;;;;;4978768;28;20102;-69
2023/07/08 03:28:46;;;;;;;9.30;5.03;;;19.40;99.90;;;;;;4977372;28;20057;-69
2023/07/08 03:31:11;;;;;;;11.38;5.43;;;19.50;99.90;;;;;;4978446;28;20062;-69
2023/07/08 03:33:37;;;;;;;11.43;5.75;;;19.50;99.90;;;;;;4978592;28;20019;-69
2023/07/08 03:36:05;;;;;;;11.05;5.80;;;19.50;99.90;;;;;;4978727;28;20089;-69
2023/07/08 03:38:30;;;;;;;9.75;5.32;;;19.60;99.90;;;;;;4978414;28;20016;-69
2023/07/08 03:40:56;;;;;;;9.55;5.05;;;19.60;99.90;;;;;;4978421;28;20480;-69
2023/07/08 03:43:21;;;;;;;10.45;5.32;;;19.60;99.90;;;;;;4978524;28;20431;-70
2023/07/08 03:45:47;;;;;;;12.07;5.22;;;19.60;99.90;;;;;;4978130;28;20031;-69
2023/07/08 03:48:13;;;;;;;6.68;5.55;;;19.70;99.90;;;;;;4977971;28;20031;-69
2023/07/08 03:50:39;;;;;;;9.15;4.85;;;19.70;99.90;;;;;;4978434;28;20035;-68
2023/07/08 03:53:05;;;;;;;6.95;4.93;;;19.70;99.90;;;;;;4978385;28;20023;-69
2023/07/08 03:55:30;;;;;;;9.85;5.65;;;19.70;99.90;;;;;;4976756;28;20035;-69
2023/07/08 03:57:56;;;;;;;10.93;5.28;;;19.70;99.90;;;;;;4973123;28;20025;-70
2023/07/08 04:00:22;;;;;;;9.88;5.65;;;19.80;99.90;;;;;;4977940;28;20026;-69
2023/07/08 04:02:48;;;;;;;8.63;5.05;;;19.90;99.90;;;;;;4976950;28;20033;-69
2023/07/08 04:05:19;;;;;;;11.93;4.93;;;19.90;99.90;;;;;;4977912;28;20110;-69
2023/07/08 04:07:45;;;;;;;8.35;5.07;;;19.90;99.90;;;;;;4978323;28;20019;-68
2023/07/08 04:10:11;;;;;;;10.30;4.80;;;19.90;99.90;;;;;;4977797;28;20031;-69
2023/07/08 04:12:37;;;;;;;8.85;5.22;;;19.90;99.90;;;;;;4978250;28;20073;-69
2023/07/08 04:15:03;;;;;;;12.55;5.10;;;20.00;99.90;;;;;;4977661;28;20038;-68
2023/07/08 04:17:30;;;;;;;10.32;5.47;;;20.00;99.90;;;;;;4977939;28;20399;-69
2023/07/08 04:20:01;;;;;;;11.60;4.55;;;20.10;99.90;;;;;;4977830;28;20027;-68
2023/07/08 04:22:26;;;;;;;15.35;5.60;;;20.10;99.90;;;;;;4967478;28;20468;-69
2023/07/08 04:24:52;;;;;;;11.55;5.47;;;20.10;99.90;;;;;;4977885;28;20198;-70
2023/07/08 04:27:18;;;;;;;11.18;5.05;;;20.10;99.90;;;;;;4977971;28;20031;-69
2023/07/08 04:29:44;;;;;;;11.15;5.25;;;20.10;99.90;;;;;;4977577;28;20038;-69
2023/07/08 04:32:10;;;;;;;11.95;5.03;;;20.10;99.90;;;;;;4977965;28;20039;-69
2023/07/08 04:34:35;;;;;;;9.80;5.18;;;20.10;99.90;;;;;;4977543;28;20027;-69
2023/07/08 04:37:01;;;;;;;11.10;5.15;;;20.20;99.90;;;;;;4977965;28;20114;-69
2023/07/08 04:39:27;;;;;;;11.00;5.35;;;20.20;99.90;;;;;;4977977;28;20038;-70
2023/07/08 04:41:53;;;;;;;13.90;5.80;;;20.20;99.90;;;;;;4977763;28;20117;-70
2023/07/08 04:44:19;;;;;;;9.23;5.68;;;20.20;99.90;;;;;;4976002;28;20035;-68
2023/07/08 04:46:55;;;;;;;8.52;4.93;;;20.20;99.90;;;;;;4978002;28;20019;-69
2023/07/08 04:49:21;;;;;;;11.57;5.10;;;20.30;99.90;;;;;;4975310;28;20007;-69
2023/07/08 04:51:47;;;;;;;13.90;5.97;;;20.40;99.90;;;;;;4977700;28;20415;-69
2023/07/08 04:54:13;;;;;;;11.45;5.05;;;20.40;99.90;;;;;;4977649;28;20057;-68
2023/07/08 04:56:46;;;;;;;8.25;5.20;;;20.40;99.90;;;;;;4977570;28;20105;-69
2023/07/08 04:59:14;;;;;;;11.52;5.00;;;20.40;99.90;;;;;;4967580;28;20046;-69
2023/07/08 05:01:40;;;;;;;8.25;5.50;;;20.40;99.90;;;;;;4980171;28;20031;-69
2023/07/08 05:04:07;;;;;;;10.68;5.90;;;20.40;99.90;;;;;;4981277;28;20026;-69
2023/07/08 05:06:34;;;;;;;11.70;5.70;;;20.30;99.90;;;;;;4979987;28;20035;-69
2023/07/08 05:09:00;;;;;;;10.32;5.40;;;20.40;99.90;;;;;;4981362;28;20027;-69
2023/07/08 05:11:26;;;;;;;11.25;5.85;;;20.30;99.90;;;;;;4981276;28;20212;-69
2023/07/08 05:13:51;;;;;;;11.60;6.20;;;20.30;99.90;;;;;;4981238;28;20027;-69
2023/07/08 05:16:17;;;;;;;14.50;6.22;;;20.30;99.90;;;;;;4980777;28;20030;-69
2023/07/08 05:18:43;;;;;;;12.90;6.60;;;20.40;99.90;;;;;;4981150;28;20562;-70
2023/07/08 05:21:09;;;;;;;15.20;5.50;;;20.40;99.90;;;;;;4979557;28;20058;-69
2023/07/08 05:23:35;;;;;;;10.73;5.82;;;20.40;99.90;;;;;;4981258;28;20027;-70
2023/07/08 05:26:03;;;;;;;17.33;6.75;;;20.40;99.90;;;;;;5012290;28;20053;-70
2023/07/08 05:28:28;;;;;;;10.15;6.10;;;20.40;99.90;;;;;;4979599;28;20019;-70
2023/07/08 05:30:56;;;;;;;12.55;5.80;;;20.40;99.90;;;;;;4980850;28;20080;-69
2023/07/08 05:33:23;;;;;;;8.70;5.68;;;20.50;99.90;;;;;;4980717;28;20026;-70
2023/07/08 05:35:49;;;;;;;15.82;6.15;;;20.60;99.90;;;;;;4977995;28;20058;-69
2023/07/08 05:38:15;;;;;;;10.52;5.63;;;20.70;99.90;;;;;;4980826;28;20046;-69
2023/07/08 05:40:41;;;;;;;11.07;5.78;;;20.70;99.90;;;;;;4980602;28;20027;-69
2023/07/08 05:43:07;;;;;;;11.77;6.45;;;20.80;99.90;;;;;;4980559;28;20098;-70
2023/07/08 05:45:33;;;;;;;12.93;6.75;;;21.00;99.90;;;;;;4980477;28;20027;-69
2023/07/08 05:47:59;;;;;;;10.13;6.28;;;21.10;99.90;;;;;;4979279;28;20042;-70
2023/07/08 05:50:24;;;;;;;12.88;6.35;;;21.10;99.90;;;;;;4980600;28;20031;-70
2023/07/08 05:52:50;;;;;;;12.90;5.97;;;21.20;99.90;;;;;;4980432;28;20039;-69
2023/07/08 05:55:16;;;;;;;14.00;5.88;;;21.30;99.90;;;;;;4980289;28;20045;-70
2023/07/08 05:57:41;;;;;;;11.82;6.50;;;21.30;99.90;;;;;;4974590;28;20023;-69
2023/07/08 06:00:10;;;;;;;13.38;6.68;;;21.40;99.90;;;;;;4976425;28;20027;-70
2023/07/08 06:02:36;;;;;;;12.20;6.72;;;21.50;99.90;;;;;;4980315;28;20034;-70
2023/07/08 06:05:02;;;;;;;12.63;6.15;;;21.50;99.90;;;;;;4980155;28;20439;-69
2023/07/08 06:07:27;;;;;;;10.93;6.60;;;21.50;99.90;;;;;;4980530;28;20026;-69
2023/07/08 06:09:55;;;;;;;14.57;6.75;;;21.50;99.90;;;;;;4980079;28;20050;-69
2023/07/08 06:12:21;;;;;;;12.50;6.00;;;21.40;99.90;;;;;;5011143;28;20022;-69
2023/07/08 06:14:47;;;;;;;15.88;6.88;;;21.60;99.90;;;;;;4979587;28;20107;-69
2023/07/08 06:17:13;;;;;;;10.27;6.35;;;21.70;99.90;;;;;;5011430;28;20499;-69
2023/07/08 06:19:39;;;;;;;9.57;5.93;;;21.80;99.90;;;;;;4980039;28;20514;-68
2023/07/08 06:22:05;;;;;;;11.48;6.03;;;21.90;99.90;;;;;;5011143;28;20047;-71
2023/07/08 06:24:30;;;;;;;14.13;7.03;;;22.10;99.90;;;;;;5011058;28;20027;-70
2023/07/08 06:26:56;;;;;;;9.00;5.95;;;22.20;99.90;;;;;;4979841;28;20082;-69
2023/07/08 06:29:22;;;;;;;18.92;7.32;;;22.40;99.90;;;;;;4977609;28;20027;-69
2023/07/08 06:31:47;;;;;;;12.63;5.90;;;22.50;99.90;;;;;;4979655;28;20576;-69
2023/07/08 06:34:13;;;;;;;11.30;5.50;;;22.50;99.90;;;;;;4978305;28;20023;-68
2023/07/08 06:36:39;;;;;;;13.68;6.15;;;22.40;99.90;;;;;;4974011;28;20027;-68
2023/07/08 06:39:07;;;;;;;12.02;5.18;;;22.30;99.90;;;;;;5010918;28;20037;-68
2023/07/08 06:41:33;;;;;;;11.00;6.07;;;22.20;99.90;;;;;;4979508;28;20059;-68
2023/07/08 06:43:58;;;;;;;11.55;5.22;;;22.30;99.90;;;;;;4973867;28;20026;-68
2023/07/08 06:46:24;;;;;;;12.10;4.90;;;22.50;99.90;;;;;;4979597;28;20045;-68
2023/07/08 06:48:50;;;;;;;10.45;5.47;;;22.60;99.90;;;;;;4979406;28;20023;-68
2023/07/08 06:51:16;;;;;;;8.43;5.20;;;22.70;99.90;;;;;;4979549;28;20109;-68
2023/07/08 06:53:42;;;;;;;10.70;5.07;;;22.80;99.90;;;;;;4978089;28;20053;-68
2023/07/08 06:56:08;;;;;;;11.63;4.82;;;23.00;99.90;;;;;;4979039;28;20097;-68
2023/07/08 06:58:34;;;;;;;13.73;4.65;;;23.10;99.90;;;;;;4977386;28;20023;-68
2023/07/08 07:00:59;;;;;;;14.32;5.28;;;23.20;99.90;;;;;;4978843;28;20149;-68
2023/07/08 07:03:25;;;;;;;7.72;4.78;;;23.40;99.90;;;;;;5010595;28;20018;-68
2023/07/08 07:05:51;;;;;;;11.68;4.82;;;23.60;99.90;;;;;;4979047;28;20110;-68
2023/07/08 07:08:17;;;;;;;16.40;5.35;;;23.70;99.90;;;;;;4977058;28;20161;-68
2023/07/08 07:10:43;;;;;;;13.90;4.78;;;23.90;99.90;;;;;;4978901;28;20403;-68
2023/07/08 07:13:09;;;;;;;10.35;4.93;;;24.10;99.90;;;;;;4979182;28;20395;-68
2023/07/08 07:15:34;;;;;;;7.20;4.95;;;24.00;99.90;;;;;;4978512;28;20105;-68
2023/07/08 07:18:00;;;;;;;11.60;4.80;;;23.90;99.90;;;;;;4978976;28;20027;-68
2023/07/08 07:20:27;;;;;;;9.40;3.95;;;23.90;99.90;;;;;;4978798;28;20496;-71
2023/07/08 07:22:53;;;;;;;10.75;5.07;;;23.90;99.90;;;;;;4978364;28;20396;-69
2023/07/08 07:25:19;;;;;;;13.82;5.35;;;24.10;99.90;;;;;;4978460;28;20019;-70
2023/07/08 07:27:45;;;;;;;12.85;3.88;;;24.10;99.90;;;;;;4977634;28;20031;-69
2023/07/08 07:30:15;;;;;;;15.70;5.18;;;24.00;99.90;;;;;;5009592;28;20025;-69
2023/07/08 07:32:44;;;;;;;9.65;4.40;;;24.00;99.90;;;;;;5003868;28;20464;-69
2023/07/08 07:35:14;;;;;;;7.33;4.67;;;24.10;99.90;;;;;;4971334;28;20061;-71
2023/07/08 07:37:42;;;;;;;10.25;4.25;;;24.20;99.90;;;;;;4977195;28;20490;-69
2023/07/08 07:40:12;;;;;;;12.38;6.22;;;24.40;99.90;;;;;;4978623;28;20042;-71
2023/07/08 07:42:38;;;;;;;7.45;4.75;;;24.50;99.90;;;;;;4973367;28;20027;-70
2023/07/08 07:45:05;;;;;;;9.23;5.28;;;24.60;99.90;;;;;;4978332;28;20446;-69
2023/07/08 07:47:31;;;;;;;11.43;4.57;;;24.70;99.90;;;;;;4969207;28;20045;-69
2023/07/08 07:49:58;;;;;;;9.85;4.60;;;24.60;99.90;;;;;;4977491;28;20035;-69
2023/07/08 07:52:25;;;;;;;10.70;4.10;;;24.80;99.90;;;;;;4971479;28;20027;-68
2023/07/08 07:54:55;;;;;;;8.13;4.10;;;25.00;99.90;;;;;;4977201;28;20027;-68
2023/07/08 07:57:21;;;;;;;8.15;4.30;;;25.10;99.90;;;;;;4974510;28;20019;-68
2023/07/08 07:59:48;;;;;;;8.60;4.57;;;25.40;99.90;;;;;;4976203;28;20038;-68
2023/07/08 08:02:17;;;;;;;11.02;4.55;;;25.20;99.90;;;;;;4977234;28;20105;-69
2023/07/08 08:04:43;;;;;;;10.02;4.32;;;25.00;99.90;;;;;;5002792;28;20464;-68
2023/07/08 08:07:09;;;;;;;6.95;3.88;;;24.90;99.90;;;;;;4975895;28;20054;-68
2023/07/08 08:09:36;;;;;;;12.75;4.72;;;24.80;99.90;;;;;;4977078;28;20109;-68
2023/07/08 08:12:04;;;;;;;7.75;4.60;;;24.80;99.90;;;;;;4976657;28;20035;-68
2023/07/08 08:14:29;;;;;;;8.93;4.85;;;24.80;99.90;;;;;;4976489;28;20034;-68
2023/07/08 08:16:55;;;;;;;7.45;4.28;;;24.80;99.90;;;;;;4976113;28;20083;-69
2023/07/08 08:19:22;;;;;;;11.50;4.30;;;24.80;99.90;;;;;;4976426;28;20516;-68
2023/07/08 08:21:48;;;;;;;8.60;4.43;;;24.90;99.90;;;;;;4976219;28;20047;-70
2023/07/08 08:24:14;;;;;;;8.82;4.45;;;25.00;99.90;;;;;;4976687;28;20051;-68
2023/07/08 08:26:39;;;;;;;18.05;5.15;;;25.00;99.90;;;;;;4974070;28;20023;-68
2023/07/08 08:29:05;;;;;;;12.07;4.35;;;25.10;99.90;;;;;;4976776;28;20105;-68
2023/07/08 08:31:31;;;;;;;7.18;3.97;;;25.30;99.90;;;;;;4976803;28;20102;-68
2023/07/08 08:33:57;;;;;;;11.73;3.90;;;25.30;99.90;;;;;;4976988;28;20038;-68
2023/07/08 08:36:23;;;;;;;9.40;4.32;;;25.20;99.90;;;;;;4979500;28;20050;-68
2023/07/08 08:38:49;;;;;;;11.30;4.25;;;25.40;99.90;;;;;;4979398;28;20022;-68
2023/07/08 08:41:29;;;;;;;7.88;4.43;;;25.60;99.90;;;;;;4980503;28;20025;-69
2023/07/08 08:43:55;;;;;;;10.27;3.92;;;25.60;99.90;;;;;;4977978;28;20054;-69
2023/07/08 08:46:29;;;;;;;12.25;3.97;;;25.70;99.90;;;;;;4979881;28;20030;-68
2023/07/08 08:49:20;;;;;;;10.68;5.18;;;25.80;99.90;;;;;;4980508;28;20027;-68
2023/07/08 08:51:50;;;;;;;12.10;4.72;;;25.90;99.90;;;;;;4964254;28;20408;-69
2023/07/08 08:54:16;;;;;;;10.93;4.28;;;26.00;99.90;;;;;;4980041;28;20031;-69
2023/07/08 08:56:57;;;;;;;9.80;4.93;;;25.70;99.90;;;;;;4979399;28;20526;-68
2023/07/08 08:59:35;;;;;;;;;;;25.50;99.90;;;;;;4977973;28;20096;-69
2023/07/08 09:02:16;;;;;;;8.45;4.18;;;25.30;99.90;;;;;;5006716;28;20039;-69
2023/07/08 09:04:43;;;;;;;9.13;4.55;;;25.20;99.90;;;;;;4974837;28;20029;-69
2023/07/08 09:07:15;;;;;;;8.45;4.28;;;25.40;99.90;;;;;;4981037;28;20049;-69
2023/07/08 09:10:07;;;;;;;9.95;4.22;;;25.60;99.90;;;;;;4981358;28;20037;-70
2023/07/08 09:12:34;;;;;;;14.07;4.45;;;25.90;99.90;;;;;;4981380;28;20022;-69
2023/07/08 09:15:09;;;;;;;14.00;5.03;;;26.20;99.90;;;;;;4979344;28;20031;-70
2023/07/08 09:17:35;;;;;;;10.82;4.63;;;26.40;99.90;;;;;;4981432;28;20026;-69
2023/07/08 09:20:16;;;;;;;11.07;4.57;;;26.50;99.90;;;;;;4977376;28;20018;-69
2023/07/08 09:22:56;;;;;;;9.63;4.65;;;26.70;99.90;;;;;;4981095;28;20015;-69
2023/07/08 09:25:43;;;;;;;11.73;4.13;;;26.70;99.90;;;;;;4981183;28;20023;-70
2023/07/08 09:28:09;;;;;;;12.77;4.80;;;26.90;99.90;;;;;;4980886;28;20026;-69
2023/07/08 09:30:34;;;;;;;9.15;4.95;;;26.90;99.90;;;;;;4980790;28;20883;-69
2023/07/08 09:33:07;;;;;;;11.10;4.72;;;27.10;99.90;;;;;;4979425;28;20086;-73
2023/07/08 09:35:43;;;;;;;9.85;4.40;;;27.20;99.90;;;;;;4980839;28;20101;-70
2023/07/08 09:38:13;;;;;;;8.73;4.38;;;27.20;99.90;;;;;;4980782;28;20063;-69
2023/07/08 09:40:39;;;;;;;11.68;4.45;;;27.30;99.90;;;;;;4980526;28;20085;-69
2023/07/08 09:43:24;;;;;;;10.02;4.88;;;27.50;99.90;;;;;;4980154;28;20031;-68
2023/07/08 09:45:50;;;;;;;8.07;4.57;;;27.60;99.90;;;;;;4968168;28;20377;-68
2023/07/08 09:48:26;;;;;;;10.55;4.47;;;27.60;99.90;;;;;;4978362;28;20030;-69
2023/07/08 09:50:54;;;;;;;11.02;5.20;;;27.60;99.90;;;;;;4977722;28;20498;-68
2023/07/08 09:53:19;;;;;;;14.15;4.80;;;27.60;99.90;;;;;;4980619;28;20022;-69
2023/07/08 09:55:46;;;;;;;7.85;4.28;;;27.50;99.90;;;;;;4979992;28;20101;-68
2023/07/08 09:58:18;;;;;;;10.13;4.72;;;27.60;99.90;;;;;;4973080;28;20042;-68
2023/07/08 10:00:53;;;;;;;8.90;4.85;;;27.90;99.90;;;;;;4980191;28;20019;-67
2023/07/08 10:03:37;;;;;;;11.80;3.90;;;27.90;99.90;;;;;;4978601;28;20021;-67
2023/07/08 10:06:09;;;;;;;11.77;4.07;;;28.00;99.90;;;;;;4970625;28;20063;-68
2023/07/08 10:08:44;;;;;;;10.93;4.05;;;28.20;99.90;;;;;;5011358;28;20027;-68
2023/07/08 10:11:14;;;;;;;9.27;4.32;;;28.30;99.90;;;;;;4973122;28;20613;-68
2023/07/08 10:13:46;;;;;;;9.33;4.13;;;28.20;99.90;;;;;;4979804;28;20030;-68
2023/07/08 10:16:27;;;;;;;12.13;3.70;;;28.20;99.90;;;;;;4979908;28;20062;-68
2023/07/08 10:18:53;;;;;;;8.15;3.90;;;28.30;99.90;;;;;;4969867;28;20134;-68
2023/07/08 10:21:48;;;;;;;9.80;4.32;;;28.50;99.90;;;;;;4980085;28;20523;-68
2023/07/08 10:24:19;;;;;;;13.80;4.07;;;28.60;99.90;;;;;;4971169;28;20043;-69
2023/07/08 10:26:53;;;;;;;16.42;4.80;;;28.60;99.90;;;;;;5011061;28;20392;-69
2023/07/08 10:29:30;;;;;;;10.73;4.43;;;28.50;99.90;;;;;;4980000;28;20022;-69
2023/07/08 10:32:02;;;;;;;10.52;3.42;;;28.60;99.90;;;;;;4967702;28;20521;-69
2023/07/08 10:34:46;;;;;;;10.27;4.40;;;28.80;99.90;;;;;;4979630;28;20036;-68
2023/07/08 10:37:26;;;;;;;9.00;4.18;;;29.00;99.90;;;;;;4979854;28;20031;-68
2023/07/08 10:40:07;;;;;;;;;;;29.00;99.90;;;;;;4980173;28;20073;-69
2023/07/08 10:43:02;;;;;;;10.45;4.80;;;29.00;99.90;;;;;;4973967;28;19922;-69
2023/07/08 10:45:43;;;;;;;8.77;4.10;;;29.10;99.90;;;;;;4979445;28;20034;-69
2023/07/08 10:48:32;;;;;;;11.05;4.65;;;29.10;99.90;;;;;;5010795;28;20026;-68
2023/07/08 10:51:18;;;;;;;10.13;4.22;;;29.20;99.90;;;;;;4976176;28;20030;-69
2023/07/08 10:53:56;;;;;;;6.97;3.80;;;29.20;99.90;;;;;;4979428;28;20086;-68
2023/07/08 10:56:30;;;;;;;10.32;4.35;;;29.20;99.90;;;;;;4979213;28;20030;-69
2023/07/08 10:58:56;;;;;;;9.23;4.15;;;29.10;99.90;;;;;;5001876;28;20018;-69
2023/07/08 11:02:03;;;;;;;9.32;4.35;;;29.10;99.90;;;;;;4978001;28;20506;-69
2023/07/08 11:04:42;;;;;;;5.63;3.55;;;29.10;99.90;;;;;;4971654;28;20153;-68
2023/07/08 11:07:40;;;;;;;11.07;4.05;;;29.10;99.90;;;;;;4976994;28;20500;-68
2023/07/08 11:10:14;;;;;;;9.82;3.88;;;29.20;99.90;;;;;;4977251;28;20492;-68
2023/07/08 11:12:45;;;;;;;9.10;4.20;;;29.20;99.90;;;;;;4977685;28;20027;-69
2023/07/08 11:15:30;;;;;;;9.38;4.30;;;29.30;99.90;;;;;;4978728;28;20034;-69
2023/07/08 11:18:03;;;;;;;9.07;4.18;;;29.50;99.90;;;;;;4978895;28;20046;-68
2023/07/08 11:20:43;;;;;;;14.30;4.97;;;29.50;99.90;;;;;;5008864;28;20038;-69
2023/07/08 11:23:46;;;;;;;10.85;4.50;;;29.60;99.90;;;;;;4978683;28;20019;-68
2023/07/08 11:26:20;;;;;;;8.80;4.25;;;29.60;99.90;;;;;;4973866;28;20022;-69
2023/07/08 11:28:48;;;;;;;9.95;4.10;;;29.60;99.90;;;;;;4977346;28;20034;-69
2023/07/08 11:31:14;;;;;;;10.15;3.65;;;29.80;99.90;;;;;;4977313;28;20023;-69
2023/07/08 11:33:41;;;;;;;7.15;3.22;;;29.80;99.90;;;;;;4978912;28;20038;-68
2023/07/08 11:36:09;;;;;;;7.47;3.97;;;29.90;99.90;;;;;;5009714;28;20086;-69
2023/07/08 11:38:35;;;;;;;11.80;4.60;;;30.00;99.90;;;;;;4978756;28;20402;-68
2023/07/08 11:41:15;;;;;;;6.43;3.75;;;30.10;99.90;;;;;;4973809;28;20022;-68
2023/07/08 11:43:56;;;;;;;10.48;4.13;;;30.20;99.90;;;;;;4978340;28;20399;-69
2023/07/08 11:46:31;;;;;;;12.07;4.43;;;30.30;99.90;;;;;;4978624;28;20018;-69
2023/07/08 11:49:12;;;;;;;7.15;4.72;;;30.40;99.90;;;;;;4978245;28;20027;-69
2023/07/08 11:51:42;;;;;;;8.48;3.85;;;30.40;99.90;;;;;;4978392;28;20077;-69
2023/07/08 11:54:35;;;;;;;9.13;4.37;;;30.50;99.90;;;;;;4978500;28;20027;-69
2023/07/08 11:57:05;;;;;;;7.07;3.85;;;30.40;99.90;;;;;;4975555;28;20089;-71
2023/07/08 11:59:38;;;;;;;9.45;4.25;;;30.30;99.90;;;;;;4971150;28;20023;-69
2023/07/08 12:02:16;;;;;;;9.63;4.55;;;30.40;99.90;;;;;;4974161;28;20078;-68
2023/07/08 12:04:54;;;;;;;7.32;4.07;;;30.40;99.90;;;;;;4976903;28;20023;-69
2023/07/08 12:07:48;;;;;;;10.80;4.22;;;30.50;99.90;;;;;;4978279;28;20025;-69
2023/07/08 12:10:18;;;;;;;7.82;3.65;;;30.50;99.90;;;;;;4974113;28;20499;-69
2023/07/08 12:12:45;;;;;;;7.57;3.58;;;30.70;99.90;;;;;;4978347;28;20054;-69
2023/07/08 12:15:31;;;;;;;9.85;3.63;;;30.80;99.90;;;;;;4977866;28;20027;-69
2023/07/08 12:18:01;;;;;;;14.65;3.70;;;30.90;99.90;;;;;;4978102;28;20102;-70
2023/07/08 12:20:28;;;;;;;;;;;30.80;99.90;;;;;;4978432;28;20122;-69
2023/07/08 12:22:54;;;;;;;7.07;3.70;;;30.70;99.90;;;;;;4976549;28;20009;-70
2023/07/08 12:25:24;;;;;;;7.93;3.40;;;30.70;99.90;;;;;;4978212;28;20054;-69
2023/07/08 12:27:50;;;;;;;;;;;30.70;99.90;;;;;;4978407;28;20030;-69
2023/07/08 12:30:16;;;;;;;8.60;3.78;;;30.80;99.90;;;;;;4977996;28;19906;-69
2023/07/08 12:32:44;;;;;;;9.98;3.17;;;30.80;99.90;;;;;;4977727;28;20102;-70
2023/07/08 12:35:39;;;;;;;8.30;3.58;;;30.90;99.90;;;;;;4978083;28;20480;-70
2023/07/08 12:38:14;;;;;;;12.30;5.00;;;31.00;99.90;;;;;;4962574;28;20031;-70
2023/07/08 12:40:40;;;;;;;8.40;3.10;;;31.00;99.90;;;;;;4977804;28;20015;-69
2023/07/08 12:43:10;;;;;;;9.48;3.50;;;31.10;99.90;;;;;;4977813;28;20041;-70
2023/07/08 12:45:36;;;;;;;11.38;3.45;;;31.20;99.90;;;;;;4976325;28;20058;-70
2023/07/08 12:48:02;;;;;;;10.93;3.63;;;31.20;99.90;;;;;;4977906;28;20042;-69
2023/07/08 12:50:28;;;;;;;7.88;3.42;;;31.30;99.90;;;;;;4977691;28;20054;-70
2023/07/08 12:52:55;;;;;;;7.03;2.97;;;31.50;99.90;;;;;;4978027;28;20027;-70
2023/07/08 12:55:22;;;;;;;5.18;3.10;;;31.40;99.90;;;;;;4977391;28;20057;-70